sensor_id;sensor_type;location;lat;lon;timestamp;P1;durP1;ratioP1;P2;durP2;ratioP2
59310;SDS011;45078;51.654;21.250;2023-06-14T00:00:58;10.48;;;4.90;;
59310;SDS011;45078;51.654;21.250;2023-06-14T00:03:24;7.65;;;4.90;;
59310;SDS011;45078;51.654;21.250;2023-06-14T00:05:51;10.38;;;5.30;;
59310;SDS011;45078;51.654;21.250;2023-06-14T00:08:17;9.82;;;5.28;;
59310;SDS011;45078;51.654;21.250;2023-06-14T00:10:44;8.32;;;4.60;;
59310;SDS011;45078;51.654;21.250;2023-06-14T00:13:10;8.68;;;4.85;;
59310;SDS011;45078;51.654;21.250;2023-06-14T00:15:36;8.98;;;5.45;;
59310;SDS011;45078;51.654;21.250;2023-06-14T00:18:02;7.60;;;4.85;;
59310;SDS011;45078;51.654;21.250;2023-06-14T00:20:29;8.80;;;4.93;;
59310;SDS011;45078;51.654;21.250;2023-06-14T00:22:57;9.43;;;5.50;;
59310;SDS011;45078;51.654;21.250;2023-06-14T00:25:24;8.82;;;4.65;;
59310;SDS011;45078;51.654;21.250;2023-06-14T00:27:53;7.60;;;5.10;;
59310;SDS011;45078;51.654;21.250;2023-06-14T00:30:19;9.85;;;5.22;;
59310;SDS011;45078;51.654;21.250;2023-06-14T00:32:46;7.88;;;4.68;;
59310;SDS011;45078;51.654;21.250;2023-06-14T00:35:12;11.15;;;5.43;;
59310;SDS011;45078;51.654;21.250;2023-06-14T00:37:38;8.48;;;5.18;;
59310;SDS011;45078;51.654;21.250;2023-06-14T00:40:05;6.95;;;4.43;;
59310;SDS011;45078;51.654;21.250;2023-06-14T00:42:31;9.75;;;5.10;;
59310;SDS011;45078;51.654;21.250;2023-06-14T00:44:58;9.52;;;5.00;;
59310;SDS011;45078;51.654;21.250;2023-06-14T00:47:24;10.18;;;5.30;;
59310;SDS011;45078;51.654;21.250;2023-06-14T00:49:52;9.60;;;5.50;;
59310;SDS011;45078;51.654;21.250;2023-06-14T00:52:20;9.95;;;5.30;;
59310;SDS011;45078;51.654;21.250;2023-06-14T00:54:46;9.73;;;5.63;;
59310;SDS011;45078;51.654;21.250;2023-06-14T00:57:12;8.93;;;5.07;;
59310;SDS011;45078;51.654;21.250;2023-06-14T00:59:45;12.57;;;5.40;;
59310;SDS011;45078;51.654;21.250;2023-06-14T01:02:13;12.35;;;5.00;;
59310;SDS011;45078;51.654;21.250;2023-06-14T01:04:43;10.10;;;4.75;;
59310;SDS011;45078;51.654;21.250;2023-06-14T01:15:43;12.25;;;5.47;;
59310;SDS011;45078;51.654;21.250;2023-06-14T01:18:10;8.80;;;5.22;;
59310;SDS011;45078;51.654;21.250;2023-06-14T01:20:42;8.85;;;5.28;;
59310;SDS011;45078;51.654;21.250;2023-06-14T01:23:10;12.75;;;5.75;;
59310;SDS011;45078;51.654;21.250;2023-06-14T01:25:39;9.07;;;5.45;;
59310;SDS011;45078;51.654;21.250;2023-06-14T01:28:08;9.70;;;5.85;;
59310;SDS011;45078;51.654;21.250;2023-06-14T01:30:37;11.23;;;5.90;;
59310;SDS011;45078;51.654;21.250;2023-06-14T01:33:13;10.15;;;5.65;;
59310;SDS011;45078;51.654;21.250;2023-06-14T01:35:44;8.15;;;5.45;;
59310;SDS011;45078;51.654;21.250;2023-06-14T01:38:15;9.45;;;5.65;;
59310;SDS011;45078;51.654;21.250;2023-06-14T01:40:44;9.40;;;5.50;;
59310;SDS011;45078;51.654;21.250;2023-06-14T01:43:13;11.32;;;5.78;;
59310;SDS011;45078;51.654;21.250;2023-06-14T01:45:40;9.40;;;6.15;;
59310;SDS011;45078;51.654;21.250;2023-06-14T01:48:11;11.45;;;5.28;;
59310;SDS011;45078;51.654;21.250;2023-06-14T01:50:37;9.98;;;5.65;;
59310;SDS011;45078;51.654;21.250;2023-06-14T01:53:03;11.45;;;5.20;;
59310;SDS011;45078;51.654;21.250;2023-06-14T01:55:32;8.55;;;5.65;;
59310;SDS011;45078;51.654;21.250;2023-06-14T01:58:02;17.80;;;5.80;;
59310;SDS011;45078;51.654;21.250;2023-06-14T02:00:28;8.13;;;5.30;;
59310;SDS011;45078;51.654;21.250;2023-06-14T02:02:54;9.32;;;5.85;;
59310;SDS011;45078;51.654;21.250;2023-06-14T02:05:21;12.32;;;5.35;;
59310;SDS011;45078;51.654;21.250;2023-06-14T02:07:47;10.10;;;5.82;;
59310;SDS011;45078;51.654;21.250;2023-06-14T02:10:13;11.73;;;5.80;;
59310;SDS011;45078;51.654;21.250;2023-06-14T02:12:39;8.95;;;5.97;;
59310;SDS011;45078;51.654;21.250;2023-06-14T02:15:05;10.80;;;6.03;;
59310;SDS011;45078;51.654;21.250;2023-06-14T02:17:32;8.07;;;5.53;;
59310;SDS011;45078;51.654;21.250;2023-06-14T02:19:58;10.27;;;6.18;;
59310;SDS011;45078;51.654;21.250;2023-06-14T02:22:24;8.13;;;5.80;;
59310;SDS011;45078;51.654;21.250;2023-06-14T02:24:50;10.85;;;6.07;;
59310;SDS011;45078;51.654;21.250;2023-06-14T02:27:16;13.23;;;6.28;;
59310;SDS011;45078;51.654;21.250;2023-06-14T02:29:42;10.63;;;6.00;;
59310;SDS011;45078;51.654;21.250;2023-06-14T02:32:08;9.35;;;5.90;;
59310;SDS011;45078;51.654;21.250;2023-06-14T02:34:34;9.98;;;5.70;;
59310;SDS011;45078;51.654;21.250;2023-06-14T02:37:00;9.60;;;6.32;;
59310;SDS011;45078;51.654;21.250;2023-06-14T02:39:28;10.45;;;5.82;;
59310;SDS011;45078;51.654;21.250;2023-06-14T02:41:54;11.70;;;5.63;;
59310;SDS011;45078;51.654;21.250;2023-06-14T02:44:23;8.52;;;5.85;;
59310;SDS011;45078;51.654;21.250;2023-06-14T02:46:56;9.18;;;5.90;;
59310;SDS011;45078;51.654;21.250;2023-06-14T02:49:22;8.93;;;5.63;;
59310;SDS011;45078;51.654;21.250;2023-06-14T02:51:48;7.57;;;5.53;;
59310;SDS011;45078;51.654;21.250;2023-06-14T02:54:13;11.52;;;5.78;;
59310;SDS011;45078;51.654;21.250;2023-06-14T02:56:39;10.38;;;5.30;;
59310;SDS011;45078;51.654;21.250;2023-06-14T02:59:06;10.93;;;5.82;;
59310;SDS011;45078;51.654;21.250;2023-06-14T03:01:34;11.55;;;5.85;;
59310;SDS011;45078;51.654;21.250;2023-06-14T03:04:03;12.10;;;5.70;;
59310;SDS011;45078;51.654;21.250;2023-06-14T03:06:29;10.85;;;5.65;;
59310;SDS011;45078;51.654;21.250;2023-06-14T03:08:56;11.27;;;6.72;;
59310;SDS011;45078;51.654;21.250;2023-06-14T03:11:29;11.82;;;5.72;;
59310;SDS011;45078;51.654;21.250;2023-06-14T03:13:55;10.95;;;5.78;;
59310;SDS011;45078;51.654;21.250;2023-06-14T03:16:21;9.50;;;5.25;;
59310;SDS011;45078;51.654;21.250;2023-06-14T03:18:52;10.32;;;5.72;;
59310;SDS011;45078;51.654;21.250;2023-06-14T03:21:18;10.88;;;6.05;;
59310;SDS011;45078;51.654;21.250;2023-06-14T03:23:45;9.02;;;5.88;;
59310;SDS011;45078;51.654;21.250;2023-06-14T03:26:11;9.25;;;6.05;;
59310;SDS011;45078;51.654;21.250;2023-06-14T03:28:40;12.65;;;6.20;;
59310;SDS011;45078;51.654;21.250;2023-06-14T03:31:06;11.80;;;6.20;;
59310;SDS011;45078;51.654;21.250;2023-06-14T03:33:33;11.90;;;6.30;;
59310;SDS011;45078;51.654;21.250;2023-06-14T03:35:59;9.38;;;6.25;;
59310;SDS011;45078;51.654;21.250;2023-06-14T03:38:26;11.25;;;5.97;;
59310;SDS011;45078;51.654;21.250;2023-06-14T03:40:52;15.10;;;6.95;;
59310;SDS011;45078;51.654;21.250;2023-06-14T03:43:17;9.48;;;5.85;;
59310;SDS011;45078;51.654;21.250;2023-06-14T03:45:43;10.88;;;6.22;;
59310;SDS011;45078;51.654;21.250;2023-06-14T03:48:09;12.50;;;6.03;;
59310;SDS011;45078;51.654;21.250;2023-06-14T03:50:35;10.70;;;6.30;;
59310;SDS011;45078;51.654;21.250;2023-06-14T03:53:03;11.05;;;6.10;;
59310;SDS011;45078;51.654;21.250;2023-06-14T03:55:29;9.18;;;6.07;;
59310;SDS011;45078;51.654;21.250;2023-06-14T03:57:58;12.88;;;6.28;;
59310;SDS011;45078;51.654;21.250;2023-06-14T04:00:24;10.57;;;5.88;;
59310;SDS011;45078;51.654;21.250;2023-06-14T04:02:51;10.07;;;6.60;;
59310;SDS011;45078;51.654;21.250;2023-06-14T04:05:17;10.55;;;6.05;;
59310;SDS011;45078;51.654;21.250;2023-06-14T04:07:44;13.75;;;6.38;;
59310;SDS011;45078;51.654;21.250;2023-06-14T04:10:13;11.18;;;6.13;;
59310;SDS011;45078;51.654;21.250;2023-06-14T04:12:41;12.07;;;6.43;;
59310;SDS011;45078;51.654;21.250;2023-06-14T04:15:08;9.98;;;6.10;;
59310;SDS011;45078;51.654;21.250;2023-06-14T04:17:34;9.90;;;6.70;;
59310;SDS011;45078;51.654;21.250;2023-06-14T04:20:00;10.25;;;6.43;;
59310;SDS011;45078;51.654;21.250;2023-06-14T04:22:29;9.57;;;6.55;;
59310;SDS011;45078;51.654;21.250;2023-06-14T04:24:55;9.55;;;6.00;;
59310;SDS011;45078;51.654;21.250;2023-06-14T04:27:25;11.82;;;6.72;;
59310;SDS011;45078;51.654;21.250;2023-06-14T04:29:52;10.98;;;5.95;;
59310;SDS011;45078;51.654;21.250;2023-06-14T04:32:23;9.93;;;5.72;;
59310;SDS011;45078;51.654;21.250;2023-06-14T04:34:54;14.45;;;6.25;;
59310;SDS011;45078;51.654;21.250;2023-06-14T04:37:22;8.38;;;5.63;;
59310;SDS011;45078;51.654;21.250;2023-06-14T04:39:48;13.95;;;7.10;;
59310;SDS011;45078;51.654;21.250;2023-06-14T04:42:15;10.65;;;6.25;;
59310;SDS011;45078;51.654;21.250;2023-06-14T04:44:44;11.50;;;6.47;;
59310;SDS011;45078;51.654;21.250;2023-06-14T04:47:10;10.80;;;6.53;;
59310;SDS011;45078;51.654;21.250;2023-06-14T04:49:41;11.43;;;6.57;;
59310;SDS011;45078;51.654;21.250;2023-06-14T04:52:06;19.65;;;6.70;;
59310;SDS011;45078;51.654;21.250;2023-06-14T04:54:38;11.45;;;6.63;;
59310;SDS011;45078;51.654;21.250;2023-06-14T04:57:08;8.73;;;5.47;;
59310;SDS011;45078;51.654;21.250;2023-06-14T04:59:39;9.43;;;6.38;;
59310;SDS011;45078;51.654;21.250;2023-06-14T05:02:05;11.40;;;5.85;;
59310;SDS011;45078;51.654;21.250;2023-06-14T05:04:32;11.25;;;6.90;;
59310;SDS011;45078;51.654;21.250;2023-06-14T05:06:58;14.50;;;5.72;;
59310;SDS011;45078;51.654;21.250;2023-06-14T05:09:23;12.55;;;6.30;;
59310;SDS011;45078;51.654;21.250;2023-06-14T05:11:49;9.05;;;5.78;;
59310;SDS011;45078;51.654;21.250;2023-06-14T05:14:15;8.27;;;5.70;;
59310;SDS011;45078;51.654;21.250;2023-06-14T05:16:41;8.30;;;6.00;;
59310;SDS011;45078;51.654;21.250;2023-06-14T05:19:08;9.95;;;6.38;;
59310;SDS011;45078;51.654;21.250;2023-06-14T05:21:35;8.90;;;5.68;;
59310;SDS011;45078;51.654;21.250;2023-06-14T05:24:02;10.48;;;6.43;;
59310;SDS011;45078;51.654;21.250;2023-06-14T05:26:28;8.45;;;5.30;;
59310;SDS011;45078;51.654;21.250;2023-06-14T05:28:55;13.68;;;6.18;;
59310;SDS011;45078;51.654;21.250;2023-06-14T05:31:26;11.88;;;5.85;;
59310;SDS011;45078;51.654;21.250;2023-06-14T05:33:53;8.25;;;5.35;;
59310;SDS011;45078;51.654;21.250;2023-06-14T05:36:19;7.90;;;5.40;;
59310;SDS011;45078;51.654;21.250;2023-06-14T05:38:46;11.07;;;5.60;;
59310;SDS011;45078;51.654;21.250;2023-06-14T05:41:12;11.15;;;6.15;;
59310;SDS011;45078;51.654;21.250;2023-06-14T05:43:38;8.13;;;5.47;;
59310;SDS011;45078;51.654;21.250;2023-06-14T05:46:04;9.07;;;4.80;;
59310;SDS011;45078;51.654;21.250;2023-06-14T05:48:30;8.88;;;5.50;;
59310;SDS011;45078;51.654;21.250;2023-06-14T05:50:56;9.38;;;4.75;;
59310;SDS011;45078;51.654;21.250;2023-06-14T05:53:22;7.35;;;4.85;;
59310;SDS011;45078;51.654;21.250;2023-06-14T05:55:48;9.30;;;5.03;;
59310;SDS011;45078;51.654;21.250;2023-06-14T05:58:16;13.20;;;5.22;;
59310;SDS011;45078;51.654;21.250;2023-06-14T06:00:42;8.05;;;4.93;;
59310;SDS011;45078;51.654;21.250;2023-06-14T06:03:08;7.35;;;4.85;;
59310;SDS011;45078;51.654;21.250;2023-06-14T06:05:36;8.13;;;4.60;;
59310;SDS011;45078;51.654;21.250;2023-06-14T06:08:02;9.68;;;4.68;;
59310;SDS011;45078;51.654;21.250;2023-06-14T06:10:29;7.05;;;4.70;;
59310;SDS011;45078;51.654;21.250;2023-06-14T06:12:54;9.05;;;5.05;;
59310;SDS011;45078;51.654;21.250;2023-06-14T06:15:20;7.22;;;4.57;;
59310;SDS011;45078;51.654;21.250;2023-06-14T06:17:46;8.25;;;4.65;;
59310;SDS011;45078;51.654;21.250;2023-06-14T06:20:11;15.63;;;5.40;;
59310;SDS011;45078;51.654;21.250;2023-06-14T06:22:38;6.85;;;4.47;;
59310;SDS011;45078;51.654;21.250;2023-06-14T06:25:04;6.72;;;4.38;;
59310;SDS011;45078;51.654;21.250;2023-06-14T06:27:31;7.68;;;5.18;;
59310;SDS011;45078;51.654;21.250;2023-06-14T06:29:57;11.70;;;4.75;;
59310;SDS011;45078;51.654;21.250;2023-06-14T06:32:23;8.63;;;4.88;;
59310;SDS011;45078;51.654;21.250;2023-06-14T06:34:49;6.88;;;4.53;;
59310;SDS011;45078;51.654;21.250;2023-06-14T06:37:15;9.05;;;4.47;;
59310;SDS011;45078;51.654;21.250;2023-06-14T06:39:41;5.90;;;4.07;;
59310;SDS011;45078;51.654;21.250;2023-06-14T06:42:07;10.27;;;4.50;;
59310;SDS011;45078;51.654;21.250;2023-06-14T06:44:33;7.32;;;3.90;;
59310;SDS011;45078;51.654;21.250;2023-06-14T06:46:58;6.82;;;4.18;;
59310;SDS011;45078;51.654;21.250;2023-06-14T06:49:24;6.45;;;4.15;;
59310;SDS011;45078;51.654;21.250;2023-06-14T06:52:05;7.47;;;4.32;;
59310;SDS011;45078;51.654;21.250;2023-06-14T06:54:33;6.22;;;3.88;;
59310;SDS011;45078;51.654;21.250;2023-06-14T06:56:59;8.40;;;4.50;;
59310;SDS011;45078;51.654;21.250;2023-06-14T06:59:26;6.75;;;4.30;;
59310;SDS011;45078;51.654;21.250;2023-06-14T07:01:52;7.15;;;3.88;;
59310;SDS011;45078;51.654;21.250;2023-06-14T07:04:18;8.07;;;4.00;;
59310;SDS011;45078;51.654;21.250;2023-06-14T07:06:44;7.05;;;3.97;;
59310;SDS011;45078;51.654;21.250;2023-06-14T07:09:11;4.88;;;3.63;;
59310;SDS011;45078;51.654;21.250;2023-06-14T07:11:39;10.50;;;4.50;;
59310;SDS011;45078;51.654;21.250;2023-06-14T07:14:05;7.65;;;4.50;;
59310;SDS011;45078;51.654;21.250;2023-06-14T07:16:31;6.57;;;3.90;;
59310;SDS011;45078;51.654;21.250;2023-06-14T07:18:57;7.53;;;4.18;;
59310;SDS011;45078;51.654;21.250;2023-06-14T07:21:23;8.93;;;4.13;;
59310;SDS011;45078;51.654;21.250;2023-06-14T07:23:51;6.30;;;3.50;;
59310;SDS011;45078;51.654;21.250;2023-06-14T07:26:17;5.93;;;3.75;;
59310;SDS011;45078;51.654;21.250;2023-06-14T07:28:43;7.00;;;3.72;;
59310;SDS011;45078;51.654;21.250;2023-06-14T07:31:15;6.43;;;3.85;;
59310;SDS011;45078;51.654;21.250;2023-06-14T07:33:42;5.90;;;3.70;;
59310;SDS011;45078;51.654;21.250;2023-06-14T07:36:08;6.25;;;4.22;;
59310;SDS011;45078;51.654;21.250;2023-06-14T07:38:33;5.53;;;3.97;;
59310;SDS011;45078;51.654;21.250;2023-06-14T07:41:00;8.85;;;3.67;;
59310;SDS011;45078;51.654;21.250;2023-06-14T07:43:26;6.25;;;3.42;;
59310;SDS011;45078;51.654;21.250;2023-06-14T07:45:52;9.27;;;3.67;;
59310;SDS011;45078;51.654;21.250;2023-06-14T07:48:18;5.68;;;3.15;;
59310;SDS011;45078;51.654;21.250;2023-06-14T07:50:43;8.02;;;3.97;;
59310;SDS011;45078;51.654;21.250;2023-06-14T07:53:09;8.90;;;3.80;;
59310;SDS011;45078;51.654;21.250;2023-06-14T07:55:35;7.72;;;3.47;;
59310;SDS011;45078;51.654;21.250;2023-06-14T07:58:05;6.25;;;3.88;;
59310;SDS011;45078;51.654;21.250;2023-06-14T08:00:31;6.00;;;3.60;;
59310;SDS011;45078;51.654;21.250;2023-06-14T08:02:57;7.72;;;3.28;;
59310;SDS011;45078;51.654;21.250;2023-06-14T08:05:26;8.88;;;3.60;;
59310;SDS011;45078;51.654;21.250;2023-06-14T08:07:52;6.15;;;3.30;;
59310;SDS011;45078;51.654;21.250;2023-06-14T08:10:19;6.47;;;3.58;;
59310;SDS011;45078;51.654;21.250;2023-06-14T08:12:45;8.07;;;3.78;;
59310;SDS011;45078;51.654;21.250;2023-06-14T08:15:11;5.80;;;3.22;;
59310;SDS011;45078;51.654;21.250;2023-06-14T08:17:37;4.80;;;3.10;;
59310;SDS011;45078;51.654;21.250;2023-06-14T08:20:03;8.52;;;3.90;;
59310;SDS011;45078;51.654;21.250;2023-06-14T08:22:30;10.27;;;3.75;;
59310;SDS011;45078;51.654;21.250;2023-06-14T08:25:01;9.52;;;3.65;;
59310;SDS011;45078;51.654;21.250;2023-06-14T08:27:29;5.05;;;3.10;;
59310;SDS011;45078;51.654;21.250;2023-06-14T08:29:55;6.18;;;3.45;;
59310;SDS011;45078;51.654;21.250;2023-06-14T08:32:22;5.80;;;3.53;;
59310;SDS011;45078;51.654;21.250;2023-06-14T08:34:47;5.63;;;3.70;;
59310;SDS011;45078;51.654;21.250;2023-06-14T08:37:13;7.40;;;3.72;;
59310;SDS011;45078;51.654;21.250;2023-06-14T08:39:39;4.85;;;3.72;;
59310;SDS011;45078;51.654;21.250;2023-06-14T08:42:06;4.93;;;3.38;;
59310;SDS011;45078;51.654;21.250;2023-06-14T08:44:34;4.32;;;3.00;;
59310;SDS011;45078;51.654;21.250;2023-06-14T08:47:00;7.45;;;3.28;;
59310;SDS011;45078;51.654;21.250;2023-06-14T08:49:28;5.63;;;3.50;;
59310;SDS011;45078;51.654;21.250;2023-06-14T08:51:59;7.72;;;3.60;;
59310;SDS011;45078;51.654;21.250;2023-06-14T08:54:29;5.28;;;3.30;;
59310;SDS011;45078;51.654;21.250;2023-06-14T08:56:58;5.18;;;3.30;;
59310;SDS011;45078;51.654;21.250;2023-06-14T08:59:27;4.88;;;3.33;;
59310;SDS011;45078;51.654;21.250;2023-06-14T09:01:54;6.07;;;3.22;;
59310;SDS011;45078;51.654;21.250;2023-06-14T09:04:23;4.15;;;3.00;;
59310;SDS011;45078;51.654;21.250;2023-06-14T09:06:54;12.98;;;3.72;;
59310;SDS011;45078;51.654;21.250;2023-06-14T09:09:21;4.88;;;3.20;;
59310;SDS011;45078;51.654;21.250;2023-06-14T09:11:51;4.78;;;3.03;;
59310;SDS011;45078;51.654;21.250;2023-06-14T09:14:19;7.28;;;2.97;;
59310;SDS011;45078;51.654;21.250;2023-06-14T09:16:46;6.60;;;2.80;;
59310;SDS011;45078;51.654;21.250;2023-06-14T09:19:24;6.57;;;2.97;;
59310;SDS011;45078;51.654;21.250;2023-06-14T09:21:50;7.03;;;2.92;;
59310;SDS011;45078;51.654;21.250;2023-06-14T09:24:18;5.85;;;3.03;;
59310;SDS011;45078;51.654;21.250;2023-06-14T09:26:47;8.35;;;3.22;;
59310;SDS011;45078;51.654;21.250;2023-06-14T09:29:13;6.05;;;2.80;;
59310;SDS011;45078;51.654;21.250;2023-06-14T09:31:42;4.65;;;2.97;;
59310;SDS011;45078;51.654;21.250;2023-06-14T09:34:09;6.00;;;3.92;;
59310;SDS011;45078;51.654;21.250;2023-06-14T09:36:35;8.15;;;3.78;;
59310;SDS011;45078;51.654;21.250;2023-06-14T09:39:01;4.55;;;2.90;;
59310;SDS011;45078;51.654;21.250;2023-06-14T09:44:06;5.07;;;3.30;;
59310;SDS011;45078;51.654;21.250;2023-06-14T09:46:33;4.47;;;3.17;;
59310;SDS011;45078;51.654;21.250;2023-06-14T09:49:00;7.50;;;4.15;;
59310;SDS011;45078;51.654;21.250;2023-06-14T09:51:27;5.07;;;3.20;;
59310;SDS011;45078;51.654;21.250;2023-06-14T09:53:58;4.32;;;3.00;;
59310;SDS011;45078;51.654;21.250;2023-06-14T09:56:29;4.97;;;3.20;;
59310;SDS011;45078;51.654;21.250;2023-06-14T09:58:59;8.02;;;3.28;;
59310;SDS011;45078;51.654;21.250;2023-06-14T10:01:25;8.65;;;3.20;;
59310;SDS011;45078;51.654;21.250;2023-06-14T10:03:55;8.27;;;3.53;;
59310;SDS011;45078;51.654;21.250;2023-06-14T10:06:26;7.03;;;3.43;;
59310;SDS011;45078;51.654;21.250;2023-06-14T10:08:54;7.55;;;3.47;;
59310;SDS011;45078;51.654;21.250;2023-06-14T10:11:25;6.35;;;3.30;;
59310;SDS011;45078;51.654;21.250;2023-06-14T10:13:51;10.18;;;3.53;;
59310;SDS011;45078;51.654;21.250;2023-06-14T10:16:34;8.32;;;3.47;;
59310;SDS011;45078;51.654;21.250;2023-06-14T10:19:07;6.13;;;3.20;;
59310;SDS011;45078;51.654;21.250;2023-06-14T10:24:42;6.82;;;2.88;;
59310;SDS011;45078;51.654;21.250;2023-06-14T10:27:09;7.43;;;3.20;;
59310;SDS011;45078;51.654;21.250;2023-06-14T10:32:22;4.97;;;3.13;;
59310;SDS011;45078;51.654;21.250;2023-06-14T10:35:11;4.53;;;2.90;;
59310;SDS011;45078;51.654;21.250;2023-06-14T10:37:40;4.97;;;2.72;;
59310;SDS011;45078;51.654;21.250;2023-06-14T10:40:06;5.13;;;2.83;;
59310;SDS011;45078;51.654;21.250;2023-06-14T10:42:34;6.05;;;2.75;;
59310;SDS011;45078;51.654;21.250;2023-06-14T10:45:00;4.82;;;2.55;;
59310;SDS011;45078;51.654;21.250;2023-06-14T10:50:04;7.32;;;2.88;;
59310;SDS011;45078;51.654;21.250;2023-06-14T10:52:38;6.70;;;2.83;;
59310;SDS011;45078;51.654;21.250;2023-06-14T10:55:18;9.32;;;2.90;;
59310;SDS011;45078;51.654;21.250;2023-06-14T11:00:24;4.47;;;2.70;;
59310;SDS011;45078;51.654;21.250;2023-06-14T11:05:40;5.30;;;2.83;;
59310;SDS011;45078;51.654;21.250;2023-06-14T11:11:08;6.68;;;3.00;;
59310;SDS011;45078;51.654;21.250;2023-06-14T11:13:36;5.32;;;2.78;;
59310;SDS011;45078;51.654;21.250;2023-06-14T11:16:09;5.13;;;3.15;;
59310;SDS011;45078;51.654;21.250;2023-06-14T11:18:42;7.10;;;3.10;;
59310;SDS011;45078;51.654;21.250;2023-06-14T11:21:09;4.28;;;2.80;;
59310;SDS011;45078;51.654;21.250;2023-06-14T11:23:35;9.13;;;3.00;;
59310;SDS011;45078;51.654;21.250;2023-06-14T11:26:01;6.32;;;3.03;;
59310;SDS011;45078;51.654;21.250;2023-06-14T11:31:11;6.70;;;3.10;;
59310;SDS011;45078;51.654;21.250;2023-06-14T11:33:37;8.88;;;3.40;;
59310;SDS011;45078;51.654;21.250;2023-06-14T11:36:03;5.90;;;3.30;;
59310;SDS011;45078;51.654;21.250;2023-06-14T11:38:36;5.72;;;2.70;;
59310;SDS011;45078;51.654;21.250;2023-06-14T11:41:05;4.65;;;3.15;;
59310;SDS011;45078;51.654;21.250;2023-06-14T11:43:31;4.20;;;2.80;;
59310;SDS011;45078;51.654;21.250;2023-06-14T11:45:58;5.93;;;2.75;;
59310;SDS011;45078;51.654;21.250;2023-06-14T11:48:35;5.57;;;2.35;;
59310;SDS011;45078;51.654;21.250;2023-06-14T11:51:06;3.30;;;2.30;;
59310;SDS011;45078;51.654;21.250;2023-06-14T11:53:32;6.13;;;2.50;;
59310;SDS011;45078;51.654;21.250;2023-06-14T11:55:58;4.15;;;2.08;;
59310;SDS011;45078;51.654;21.250;2023-06-14T11:58:25;4.97;;;1.90;;
59310;SDS011;45078;51.654;21.250;2023-06-14T12:00:52;4.78;;;2.05;;
59310;SDS011;45078;51.654;21.250;2023-06-14T12:03:22;4.90;;;1.90;;
59310;SDS011;45078;51.654;21.250;2023-06-14T12:05:50;6.93;;;2.00;;
59310;SDS011;45078;51.654;21.250;2023-06-14T12:08:31;6.82;;;2.20;;
59310;SDS011;45078;51.654;21.250;2023-06-14T12:11:03;4.05;;;2.83;;
59310;SDS011;45078;51.654;21.250;2023-06-14T12:13:30;2.95;;;1.75;;
59310;SDS011;45078;51.654;21.250;2023-06-14T12:15:56;3.58;;;1.70;;
59310;SDS011;45078;51.654;21.250;2023-06-14T12:18:31;2.88;;;1.60;;
59310;SDS011;45078;51.654;21.250;2023-06-14T12:20:59;5.00;;;1.98;;
59310;SDS011;45078;51.654;21.250;2023-06-14T12:26:14;8.30;;;2.15;;
59310;SDS011;45078;51.654;21.250;2023-06-14T12:28:40;2.17;;;1.52;;
59310;SDS011;45078;51.654;21.250;2023-06-14T12:31:08;2.47;;;1.40;;
59310;SDS011;45078;51.654;21.250;2023-06-14T12:33:34;2.25;;;1.50;;
59310;SDS011;45078;51.654;21.250;2023-06-14T12:36:02;4.20;;;1.70;;
59310;SDS011;45078;51.654;21.250;2023-06-14T12:38:30;5.75;;;1.40;;
59310;SDS011;45078;51.654;21.250;2023-06-14T12:40:57;2.92;;;1.52;;
59310;SDS011;45078;51.654;21.250;2023-06-14T12:43:23;6.70;;;1.55;;
59310;SDS011;45078;51.654;21.250;2023-06-14T12:45:49;3.10;;;1.55;;
59310;SDS011;45078;51.654;21.250;2023-06-14T12:48:15;3.95;;;1.60;;
59310;SDS011;45078;51.654;21.250;2023-06-14T12:50:41;9.75;;;2.70;;
59310;SDS011;45078;51.654;21.250;2023-06-14T12:53:07;3.53;;;1.88;;
59310;SDS011;45078;51.654;21.250;2023-06-14T12:55:33;3.08;;;1.60;;
59310;SDS011;45078;51.654;21.250;2023-06-14T12:57:59;2.47;;;1.30;;
59310;SDS011;45078;51.654;21.250;2023-06-14T13:00:24;8.35;;;1.60;;
59310;SDS011;45078;51.654;21.250;2023-06-14T13:02:55;2.97;;;1.45;;
59310;SDS011;45078;51.654;21.250;2023-06-14T13:05:22;3.28;;;1.58;;
59310;SDS011;45078;51.654;21.250;2023-06-14T13:07:48;5.10;;;1.75;;
59310;SDS011;45078;51.654;21.250;2023-06-14T13:10:13;3.15;;;1.70;;
59310;SDS011;45078;51.654;21.250;2023-06-14T13:12:39;2.80;;;1.70;;
59310;SDS011;45078;51.654;21.250;2023-06-14T13:15:05;3.55;;;2.00;;
59310;SDS011;45078;51.654;21.250;2023-06-14T13:17:33;5.95;;;2.03;;
59310;SDS011;45078;51.654;21.250;2023-06-14T13:20:03;3.15;;;1.50;;
59310;SDS011;45078;51.654;21.250;2023-06-14T13:22:30;3.17;;;1.85;;
59310;SDS011;45078;51.654;21.250;2023-06-14T13:24:56;7.65;;;2.10;;
59310;SDS011;45078;51.654;21.250;2023-06-14T13:27:22;6.30;;;2.17;;
59310;SDS011;45078;51.654;21.250;2023-06-14T13:29:49;4.57;;;2.00;;
59310;SDS011;45078;51.654;21.250;2023-06-14T13:32:15;3.03;;;1.77;;
59310;SDS011;45078;51.654;21.250;2023-06-14T13:34:41;5.68;;;1.90;;
59310;SDS011;45078;51.654;21.250;2023-06-14T13:37:06;4.45;;;2.10;;
59310;SDS011;45078;51.654;21.250;2023-06-14T13:39:32;5.47;;;2.28;;
59310;SDS011;45078;51.654;21.250;2023-06-14T13:41:58;4.18;;;2.10;;
59310;SDS011;45078;51.654;21.250;2023-06-14T13:44:24;3.28;;;2.13;;
59310;SDS011;45078;51.654;21.250;2023-06-14T13:46:50;3.75;;;2.35;;
59310;SDS011;45078;51.654;21.250;2023-06-14T13:49:16;6.93;;;2.13;;
59310;SDS011;45078;51.654;21.250;2023-06-14T13:51:42;3.08;;;2.25;;
59310;SDS011;45078;51.654;21.250;2023-06-14T13:54:08;3.67;;;2.50;;
59310;SDS011;45078;51.654;21.250;2023-06-14T13:56:33;5.05;;;2.38;;
59310;SDS011;45078;51.654;21.250;2023-06-14T13:59:00;3.97;;;2.42;;
59310;SDS011;45078;51.654;21.250;2023-06-14T14:01:26;5.97;;;2.78;;
59310;SDS011;45078;51.654;21.250;2023-06-14T14:03:53;5.28;;;2.65;;
59310;SDS011;45078;51.654;21.250;2023-06-14T14:06:19;6.88;;;2.78;;
59310;SDS011;45078;51.654;21.250;2023-06-14T14:08:45;4.75;;;2.80;;
59310;SDS011;45078;51.654;21.250;2023-06-14T14:11:11;4.60;;;3.08;;
59310;SDS011;45078;51.654;21.250;2023-06-14T14:13:37;6.95;;;3.38;;
59310;SDS011;45078;51.654;21.250;2023-06-14T14:16:05;4.78;;;3.47;;
59310;SDS011;45078;51.654;21.250;2023-06-14T14:18:31;7.18;;;3.72;;
59310;SDS011;45078;51.654;21.250;2023-06-14T14:20:57;6.18;;;3.38;;
59310;SDS011;45078;51.654;21.250;2023-06-14T14:23:23;7.13;;;3.50;;
59310;SDS011;45078;51.654;21.250;2023-06-14T14:25:49;5.63;;;3.70;;
59310;SDS011;45078;51.654;21.250;2023-06-14T14:28:15;4.78;;;3.33;;
59310;SDS011;45078;51.654;21.250;2023-06-14T14:30:43;5.07;;;3.45;;
59310;SDS011;45078;51.654;21.250;2023-06-14T14:33:09;8.75;;;3.92;;
59310;SDS011;45078;51.654;21.250;2023-06-14T14:35:40;6.60;;;3.58;;
59310;SDS011;45078;51.654;21.250;2023-06-14T14:38:07;6.13;;;3.40;;
59310;SDS011;45078;51.654;21.250;2023-06-14T14:40:33;5.30;;;3.60;;
59310;SDS011;45078;51.654;21.250;2023-06-14T14:42:58;5.78;;;3.42;;
59310;SDS011;45078;51.654;21.250;2023-06-14T14:45:24;4.72;;;3.42;;
59310;SDS011;45078;51.654;21.250;2023-06-14T14:47:50;5.40;;;3.83;;
59310;SDS011;45078;51.654;21.250;2023-06-14T14:50:15;5.53;;;3.80;;
59310;SDS011;45078;51.654;21.250;2023-06-14T14:52:41;9.98;;;3.47;;
59310;SDS011;45078;51.654;21.250;2023-06-14T14:55:07;5.30;;;3.88;;
59310;SDS011;45078;51.654;21.250;2023-06-14T14:57:33;8.90;;;4.35;;
59310;SDS011;45078;51.654;21.250;2023-06-14T15:00:02;6.43;;;4.40;;
59310;SDS011;45078;51.654;21.250;2023-06-14T15:02:28;5.82;;;4.00;;
59310;SDS011;45078;51.654;21.250;2023-06-14T15:04:54;7.97;;;5.13;;